sensor_id;sensor_type;location;lat;lon;timestamp;P1;durP1;ratioP1;P2;durP2;ratioP2
5762;SDS011;2906;53.282;9.508;2023-03-20T00:00:24;84.80;;;28.15;;
5762;SDS011;2906;53.282;9.508;2023-03-20T00:01:29;84.43;;;28.60;;
5762;SDS011;2906;53.282;9.508;2023-03-20T00:02:32;87.00;;;26.77;;
5762;SDS011;2906;53.282;9.508;2023-03-20T00:03:35;81.20;;;26.90;;
5762;SDS011;2906;53.282;9.508;2023-03-20T00:04:37;81.25;;;26.35;;
5762;SDS011;2906;53.282;9.508;2023-03-20T00:05:39;82.45;;;26.38;;
5762;SDS011;2906;53.282;9.508;2023-03-20T00:06:42;75.45;;;26.00;;
5762;SDS011;2906;53.282;9.508;2023-03-20T00:07:45;83.68;;;26.35;;
5762;SDS011;2906;53.282;9.508;2023-03-20T00:08:47;83.38;;;27.17;;
5762;SDS011;2906;53.282;9.508;2023-03-20T00:09:50;83.65;;;26.77;;
5762;SDS011;2906;53.282;9.508;2023-03-20T00:10:53;79.45;;;26.27;;
5762;SDS011;2906;53.282;9.508;2023-03-20T00:11:56;85.53;;;27.30;;
5762;SDS011;2906;53.282;9.508;2023-03-20T00:12:57;75.32;;;26.50;;
5762;SDS011;2906;53.282;9.508;2023-03-20T00:14:03;91.85;;;26.83;;
5762;SDS011;2906;53.282;9.508;2023-03-20T00:15:07;82.60;;;27.27;;
5762;SDS011;2906;53.282;9.508;2023-03-20T00:16:18;85.50;;;26.42;;
5762;SDS011;2906;53.282;9.508;2023-03-20T00:17:20;78.53;;;26.50;;
5762;SDS011;2906;53.282;9.508;2023-03-20T00:18:22;76.68;;;25.33;;
5762;SDS011;2906;53.282;9.508;2023-03-20T00:19:26;80.45;;;25.27;;
5762;SDS011;2906;53.282;9.508;2023-03-20T00:20:30;81.95;;;26.50;;
5762;SDS011;2906;53.282;9.508;2023-03-20T00:21:31;75.32;;;25.38;;
5762;SDS011;2906;53.282;9.508;2023-03-20T00:22:33;75.32;;;26.48;;
5762;SDS011;2906;53.282;9.508;2023-03-20T00:23:35;80.32;;;26.02;;
5762;SDS011;2906;53.282;9.508;2023-03-20T00:24:37;83.90;;;27.08;;
5762;SDS011;2906;53.282;9.508;2023-03-20T00:25:39;74.72;;;26.60;;
5762;SDS011;2906;53.282;9.508;2023-03-20T00:26:42;77.50;;;26.63;;
5762;SDS011;2906;53.282;9.508;2023-03-20T00:27:44;76.10;;;25.90;;
5762;SDS011;2906;53.282;9.508;2023-03-20T00:28:47;78.55;;;26.35;;
5762;SDS011;2906;53.282;9.508;2023-03-20T00:29:50;82.43;;;26.42;;
5762;SDS011;2906;53.282;9.508;2023-03-20T00:30:52;70.30;;;24.65;;
5762;SDS011;2906;53.282;9.508;2023-03-20T00:31:54;86.97;;;26.10;;
5762;SDS011;2906;53.282;9.508;2023-03-20T00:32:57;91.57;;;26.85;;
5762;SDS011;2906;53.282;9.508;2023-03-20T00:33:59;75.32;;;25.50;;
5762;SDS011;2906;53.282;9.508;2023-03-20T00:35:06;78.47;;;25.95;;
5762;SDS011;2906;53.282;9.508;2023-03-20T00:36:13;81.38;;;26.05;;
5762;SDS011;2906;53.282;9.508;2023-03-20T00:37:15;85.18;;;27.52;;
5762;SDS011;2906;53.282;9.508;2023-03-20T00:38:17;78.20;;;26.75;;
5762;SDS011;2906;53.282;9.508;2023-03-20T00:39:19;81.30;;;25.27;;
5762;SDS011;2906;53.282;9.508;2023-03-20T00:40:21;78.00;;;25.88;;
5762;SDS011;2906;53.282;9.508;2023-03-20T00:41:25;75.35;;;24.08;;
5762;SDS011;2906;53.282;9.508;2023-03-20T00:42:27;80.18;;;25.58;;
5762;SDS011;2906;53.282;9.508;2023-03-20T00:43:29;83.78;;;27.05;;
5762;SDS011;2906;53.282;9.508;2023-03-20T00:44:31;70.68;;;25.50;;
5762;SDS011;2906;53.282;9.508;2023-03-20T00:45:36;83.38;;;26.00;;
5762;SDS011;2906;53.282;9.508;2023-03-20T00:46:37;74.10;;;25.75;;
5762;SDS011;2906;53.282;9.508;2023-03-20T00:47:40;88.22;;;26.50;;
5762;SDS011;2906;53.282;9.508;2023-03-20T00:48:41;75.18;;;25.17;;
5762;SDS011;2906;53.282;9.508;2023-03-20T00:49:44;79.40;;;26.30;;
5762;SDS011;2906;53.282;9.508;2023-03-20T00:50:47;78.93;;;24.52;;
5762;SDS011;2906;53.282;9.508;2023-03-20T00:51:49;78.78;;;26.02;;
5762;SDS011;2906;53.282;9.508;2023-03-20T00:52:51;78.40;;;26.23;;
5762;SDS011;2906;53.282;9.508;2023-03-20T00:53:54;80.82;;;25.55;;
5762;SDS011;2906;53.282;9.508;2023-03-20T00:54:55;74.13;;;24.42;;
5762;SDS011;2906;53.282;9.508;2023-03-20T00:55:57;86.28;;;25.70;;
5762;SDS011;2906;53.282;9.508;2023-03-20T00:56:59;74.95;;;25.23;;
5762;SDS011;2906;53.282;9.508;2023-03-20T00:58:02;78.18;;;25.90;;
5762;SDS011;2906;53.282;9.508;2023-03-20T00:59:04;71.05;;;24.60;;
5762;SDS011;2906;53.282;9.508;2023-03-20T01:00:10;81.85;;;25.23;;
5762;SDS011;2906;53.282;9.508;2023-03-20T01:01:18;76.55;;;24.95;;
5762;SDS011;2906;53.282;9.508;2023-03-20T01:02:20;74.78;;;25.05;;
5762;SDS011;2906;53.282;9.508;2023-03-20T01:03:24;80.20;;;26.02;;
5762;SDS011;2906;53.282;9.508;2023-03-20T01:04:30;73.93;;;26.13;;
5762;SDS011;2906;53.282;9.508;2023-03-20T01:05:34;75.57;;;25.17;;
5762;SDS011;2906;53.282;9.508;2023-03-20T01:06:36;78.13;;;25.15;;
5762;SDS011;2906;53.282;9.508;2023-03-20T01:07:37;74.68;;;25.15;;
5762;SDS011;2906;53.282;9.508;2023-03-20T01:08:40;84.60;;;27.02;;
5762;SDS011;2906;53.282;9.508;2023-03-20T01:09:41;73.95;;;24.38;;
5762;SDS011;2906;53.282;9.508;2023-03-20T01:10:44;82.80;;;26.58;;
5762;SDS011;2906;53.282;9.508;2023-03-20T01:11:46;77.00;;;25.67;;
5762;SDS011;2906;53.282;9.508;2023-03-20T01:12:48;81.82;;;27.20;;
5762;SDS011;2906;53.282;9.508;2023-03-20T01:13:49;73.90;;;26.27;;
5762;SDS011;2906;53.282;9.508;2023-03-20T01:14:53;81.88;;;27.90;;
5762;SDS011;2906;53.282;9.508;2023-03-20T01:15:55;71.78;;;25.33;;
5762;SDS011;2906;53.282;9.508;2023-03-20T01:17:00;82.03;;;26.58;;
5762;SDS011;2906;53.282;9.508;2023-03-20T01:18:01;82.38;;;25.25;;
5762;SDS011;2906;53.282;9.508;2023-03-20T01:19:03;80.15;;;26.42;;
5762;SDS011;2906;53.282;9.508;2023-03-20T01:20:05;74.93;;;26.65;;
5762;SDS011;2906;53.282;9.508;2023-03-20T01:21:07;93.72;;;27.80;;
5762;SDS011;2906;53.282;9.508;2023-03-20T01:22:09;82.72;;;27.90;;
5762;SDS011;2906;53.282;9.508;2023-03-20T01:23:13;78.55;;;26.27;;
5762;SDS011;2906;53.282;9.508;2023-03-20T01:24:14;85.63;;;26.50;;
5762;SDS011;2906;53.282;9.508;2023-03-20T01:25:17;73.72;;;25.77;;
5762;SDS011;2906;53.282;9.508;2023-03-20T01:26:20;81.85;;;26.58;;
5762;SDS011;2906;53.282;9.508;2023-03-20T01:27:23;78.43;;;25.60;;
5762;SDS011;2906;53.282;9.508;2023-03-20T01:28:24;76.43;;;26.75;;
5762;SDS011;2906;53.282;9.508;2023-03-20T01:29:27;78.72;;;27.42;;
5762;SDS011;2906;53.282;9.508;2023-03-20T01:30:30;73.85;;;25.90;;
5762;SDS011;2906;53.282;9.508;2023-03-20T01:31:33;86.97;;;28.35;;
5762;SDS011;2906;53.282;9.508;2023-03-20T01:32:36;76.53;;;25.98;;
5762;SDS011;2906;53.282;9.508;2023-03-20T01:33:38;76.10;;;25.50;;
5762;SDS011;2906;53.282;9.508;2023-03-20T01:34:40;84.15;;;27.20;;
5762;SDS011;2906;53.282;9.508;2023-03-20T01:35:42;72.82;;;25.20;;
5762;SDS011;2906;53.282;9.508;2023-03-20T01:36:45;78.82;;;26.35;;
5762;SDS011;2906;53.282;9.508;2023-03-20T01:37:49;79.95;;;26.95;;
5762;SDS011;2906;53.282;9.508;2023-03-20T01:38:53;69.07;;;26.13;;
5762;SDS011;2906;53.282;9.508;2023-03-20T01:39:56;82.05;;;28.77;;
5762;SDS011;2906;53.282;9.508;2023-03-20T01:40:58;90.90;;;27.42;;
5762;SDS011;2906;53.282;9.508;2023-03-20T01:42:02;76.65;;;27.80;;
5762;SDS011;2906;53.282;9.508;2023-03-20T01:43:05;79.68;;;26.85;;
5762;SDS011;2906;53.282;9.508;2023-03-20T01:44:16;77.60;;;27.65;;
5762;SDS011;2906;53.282;9.508;2023-03-20T01:45:18;74.97;;;26.73;;
5762;SDS011;2906;53.282;9.508;2023-03-20T01:46:22;76.78;;;26.13;;
5762;SDS011;2906;53.282;9.508;2023-03-20T01:47:25;90.18;;;28.65;;
5762;SDS011;2906;53.282;9.508;2023-03-20T01:48:30;77.15;;;26.77;;
5762;SDS011;2906;53.282;9.508;2023-03-20T01:50:53;80.13;;;27.92;;
5762;SDS011;2906;53.282;9.508;2023-03-20T01:51:55;81.68;;;28.08;;
5762;SDS011;2906;53.282;9.508;2023-03-20T01:52:59;85.72;;;28.50;;
5762;SDS011;2906;53.282;9.508;2023-03-20T01:54:03;92.30;;;26.73;;
5762;SDS011;2906;53.282;9.508;2023-03-20T01:55:06;83.07;;;27.55;;
5762;SDS011;2906;53.282;9.508;2023-03-20T01:56:08;92.25;;;26.83;;
5762;SDS011;2906;53.282;9.508;2023-03-20T01:57:11;82.72;;;27.27;;
5762;SDS011;2906;53.282;9.508;2023-03-20T01:58:16;95.05;;;29.00;;
5762;SDS011;2906;53.282;9.508;2023-03-20T01:59:20;73.95;;;26.48;;
5762;SDS011;2906;53.282;9.508;2023-03-20T02:00:23;81.15;;;27.70;;
5762;SDS011;2906;53.282;9.508;2023-03-20T02:01:25;88.03;;;28.58;;
5762;SDS011;2906;53.282;9.508;2023-03-20T02:02:28;76.78;;;27.33;;
5762;SDS011;2906;53.282;9.508;2023-03-20T02:03:32;84.18;;;28.13;;
5762;SDS011;2906;53.282;9.508;2023-03-20T02:04:36;81.00;;;27.63;;
5762;SDS011;2906;53.282;9.508;2023-03-20T02:05:38;88.38;;;29.33;;
5762;SDS011;2906;53.282;9.508;2023-03-20T02:06:40;94.38;;;29.77;;
5762;SDS011;2906;53.282;9.508;2023-03-20T02:07:44;86.97;;;29.48;;
5762;SDS011;2906;53.282;9.508;2023-03-20T02:08:47;83.88;;;28.55;;
5762;SDS011;2906;53.282;9.508;2023-03-20T02:09:49;91.82;;;29.17;;
5762;SDS011;2906;53.282;9.508;2023-03-20T02:10:51;78.10;;;27.30;;
5762;SDS011;2906;53.282;9.508;2023-03-20T02:11:54;86.05;;;26.27;;
5762;SDS011;2906;53.282;9.508;2023-03-20T02:12:56;89.70;;;29.17;;
5762;SDS011;2906;53.282;9.508;2023-03-20T02:13:58;83.10;;;28.60;;
5762;SDS011;2906;53.282;9.508;2023-03-20T02:15:02;85.13;;;28.27;;
5762;SDS011;2906;53.282;9.508;2023-03-20T02:16:04;75.40;;;27.10;;
5762;SDS011;2906;53.282;9.508;2023-03-20T02:17:07;70.25;;;24.83;;
5762;SDS011;2906;53.282;9.508;2023-03-20T02:18:09;73.40;;;26.02;;
5762;SDS011;2906;53.282;9.508;2023-03-20T02:19:14;85.93;;;27.60;;
5762;SDS011;2906;53.282;9.508;2023-03-20T02:20:21;68.03;;;26.02;;
5762;SDS011;2906;53.282;9.508;2023-03-20T02:21:36;81.63;;;26.90;;
5762;SDS011;2906;53.282;9.508;2023-03-20T02:22:53;73.40;;;25.95;;
5762;SDS011;2906;53.282;9.508;2023-03-20T02:24:08;72.80;;;25.17;;
5762;SDS011;2906;53.282;9.508;2023-03-20T02:25:20;75.82;;;26.30;;
5762;SDS011;2906;53.282;9.508;2023-03-20T02:26:33;81.47;;;25.50;;
5762;SDS011;2906;53.282;9.508;2023-03-20T02:27:40;82.88;;;27.38;;
5762;SDS011;2906;53.282;9.508;2023-03-20T02:28:52;67.00;;;23.23;;
5762;SDS011;2906;53.282;9.508;2023-03-20T02:30:06;70.55;;;24.73;;
5762;SDS011;2906;53.282;9.508;2023-03-20T02:31:16;84.03;;;25.58;;
5762;SDS011;2906;53.282;9.508;2023-03-20T02:32:27;78.90;;;26.05;;
5762;SDS011;2906;53.282;9.508;2023-03-20T02:33:45;83.78;;;25.67;;
5762;SDS011;2906;53.282;9.508;2023-03-20T02:34:58;83.45;;;26.52;;
5762;SDS011;2906;53.282;9.508;2023-03-20T02:36:12;78.82;;;24.88;;
5762;SDS011;2906;53.282;9.508;2023-03-20T02:37:25;78.28;;;25.35;;
5762;SDS011;2906;53.282;9.508;2023-03-20T02:38:41;72.55;;;22.42;;
5762;SDS011;2906;53.282;9.508;2023-03-20T02:39:51;72.63;;;24.85;;
5762;SDS011;2906;53.282;9.508;2023-03-20T02:40:57;74.32;;;24.02;;
5762;SDS011;2906;53.282;9.508;2023-03-20T02:42:03;71.32;;;24.27;;
5762;SDS011;2906;53.282;9.508;2023-03-20T02:43:10;84.20;;;25.42;;
5762;SDS011;2906;53.282;9.508;2023-03-20T02:44:17;76.78;;;26.17;;
5762;SDS011;2906;53.282;9.508;2023-03-20T02:45:21;73.13;;;26.63;;
5762;SDS011;2906;53.282;9.508;2023-03-20T02:46:27;95.50;;;25.83;;
5762;SDS011;2906;53.282;9.508;2023-03-20T02:47:34;81.70;;;24.13;;
5762;SDS011;2906;53.282;9.508;2023-03-20T02:48:39;68.43;;;23.65;;
5762;SDS011;2906;53.282;9.508;2023-03-20T02:49:48;87.20;;;25.70;;
5762;SDS011;2906;53.282;9.508;2023-03-20T02:50:54;75.35;;;24.35;;
5762;SDS011;2906;53.282;9.508;2023-03-20T02:51:58;74.25;;;24.85;;
5762;SDS011;2906;53.282;9.508;2023-03-20T02:53:06;69.50;;;25.00;;
5762;SDS011;2906;53.282;9.508;2023-03-20T02:54:11;76.90;;;25.45;;
5762;SDS011;2906;53.282;9.508;2023-03-20T02:55:16;69.95;;;23.10;;
5762;SDS011;2906;53.282;9.508;2023-03-20T02:56:20;74.90;;;22.98;;
5762;SDS011;2906;53.282;9.508;2023-03-20T02:57:28;61.13;;;21.92;;
5762;SDS011;2906;53.282;9.508;2023-03-20T02:58:35;58.13;;;20.75;;
5762;SDS011;2906;53.282;9.508;2023-03-20T02:59:40;54.40;;;19.88;;
5762;SDS011;2906;53.282;9.508;2023-03-20T03:00:44;60.53;;;20.17;;
5762;SDS011;2906;53.282;9.508;2023-03-20T03:01:50;63.55;;;19.92;;
5762;SDS011;2906;53.282;9.508;2023-03-20T03:02:56;61.03;;;19.52;;
5762;SDS011;2906;53.282;9.508;2023-03-20T03:04:01;61.30;;;20.17;;
5762;SDS011;2906;53.282;9.508;2023-03-20T03:05:05;62.20;;;18.73;;
5762;SDS011;2906;53.282;9.508;2023-03-20T03:06:11;58.72;;;20.05;;
5762;SDS011;2906;53.282;9.508;2023-03-20T03:07:15;50.70;;;18.27;;
5762;SDS011;2906;53.282;9.508;2023-03-20T03:08:22;49.63;;;18.08;;
5762;SDS011;2906;53.282;9.508;2023-03-20T03:09:26;46.92;;;17.15;;
5762;SDS011;2906;53.282;9.508;2023-03-20T03:10:30;48.90;;;17.35;;
5762;SDS011;2906;53.282;9.508;2023-03-20T03:11:35;49.42;;;16.98;;
5762;SDS011;2906;53.282;9.508;2023-03-20T03:12:39;47.75;;;16.77;;
5762;SDS011;2906;53.282;9.508;2023-03-20T03:13:44;41.05;;;14.88;;
5762;SDS011;2906;53.282;9.508;2023-03-20T03:14:47;47.63;;;16.52;;
5762;SDS011;2906;53.282;9.508;2023-03-20T03:15:50;41.67;;;15.88;;
5762;SDS011;2906;53.282;9.508;2023-03-20T03:16:53;36.17;;;14.30;;
5762;SDS011;2906;53.282;9.508;2023-03-20T03:17:55;40.70;;;15.25;;
5762;SDS011;2906;53.282;9.508;2023-03-20T03:19:02;39.05;;;12.75;;
5762;SDS011;2906;53.282;9.508;2023-03-20T03:20:06;34.75;;;13.23;;
5762;SDS011;2906;53.282;9.508;2023-03-20T03:21:09;40.65;;;13.38;;
5762;SDS011;2906;53.282;9.508;2023-03-20T03:22:12;38.95;;;13.45;;
5762;SDS011;2906;53.282;9.508;2023-03-20T03:23:18;32.97;;;11.85;;
5762;SDS011;2906;53.282;9.508;2023-03-20T03:24:26;39.88;;;13.88;;
5762;SDS011;2906;53.282;9.508;2023-03-20T03:25:30;33.30;;;10.80;;
5762;SDS011;2906;53.282;9.508;2023-03-20T03:26:33;37.47;;;12.82;;
5762;SDS011;2906;53.282;9.508;2023-03-20T03:27:37;44.13;;;13.35;;
5762;SDS011;2906;53.282;9.508;2023-03-20T03:28:41;37.75;;;12.07;;
5762;SDS011;2906;53.282;9.508;2023-03-20T03:29:46;40.65;;;11.80;;
5762;SDS011;2906;53.282;9.508;2023-03-20T03:30:48;32.17;;;12.20;;
5762;SDS011;2906;53.282;9.508;2023-03-20T03:31:52;32.65;;;11.95;;
5762;SDS011;2906;53.282;9.508;2023-03-20T03:33:00;32.47;;;11.25;;
5762;SDS011;2906;53.282;9.508;2023-03-20T03:34:04;33.45;;;11.00;;
5762;SDS011;2906;53.282;9.508;2023-03-20T03:35:06;30.50;;;11.18;;
5762;SDS011;2906;53.282;9.508;2023-03-20T03:36:14;33.03;;;11.02;;
5762;SDS011;2906;53.282;9.508;2023-03-20T03:37:20;29.27;;;10.32;;
5762;SDS011;2906;53.282;9.508;2023-03-20T03:38:25;30.85;;;9.95;;
5762;SDS011;2906;53.282;9.508;2023-03-20T03:39:32;26.58;;;9.98;;
5762;SDS011;2906;53.282;9.508;2023-03-20T03:40:38;27.65;;;9.88;;
5762;SDS011;2906;53.282;9.508;2023-03-20T03:41:41;27.48;;;10.02;;
5762;SDS011;2906;53.282;9.508;2023-03-20T03:42:48;32.28;;;9.38;;
5762;SDS011;2906;53.282;9.508;2023-03-20T03:43:52;26.45;;;8.95;;
5762;SDS011;2906;53.282;9.508;2023-03-20T03:44:58;26.33;;;8.57;;
5762;SDS011;2906;53.282;9.508;2023-03-20T03:46:03;24.88;;;8.55;;
5762;SDS011;2906;53.282;9.508;2023-03-20T03:47:07;25.40;;;8.90;;
5762;SDS011;2906;53.282;9.508;2023-03-20T03:48:11;28.95;;;8.40;;
5762;SDS011;2906;53.282;9.508;2023-03-20T03:49:17;25.10;;;8.95;;
5762;SDS011;2906;53.282;9.508;2023-03-20T03:50:22;26.95;;;8.98;;
5762;SDS011;2906;53.282;9.508;2023-03-20T03:51:28;22.92;;;8.45;;
5762;SDS011;2906;53.282;9.508;2023-03-20T03:52:30;24.48;;;9.50;;
5762;SDS011;2906;53.282;9.508;2023-03-20T03:53:33;26.27;;;8.70;;
5762;SDS011;2906;53.282;9.508;2023-03-20T03:54:39;22.00;;;8.23;;
5762;SDS011;2906;53.282;9.508;2023-03-20T03:55:42;26.73;;;8.57;;
5762;SDS011;2906;53.282;9.508;2023-03-20T03:56:45;25.15;;;7.50;;
5762;SDS011;2906;53.282;9.508;2023-03-20T03:57:49;24.10;;;8.23;;
5762;SDS011;2906;53.282;9.508;2023-03-20T03:58:52;25.40;;;8.00;;
5762;SDS011;2906;53.282;9.508;2023-03-20T03:59:56;21.38;;;7.80;;
5762;SDS011;2906;53.282;9.508;2023-03-20T04:00:58;26.98;;;8.13;;
5762;SDS011;2906;53.282;9.508;2023-03-20T04:02:03;25.30;;;8.20;;
5762;SDS011;2906;53.282;9.508;2023-03-20T04:03:07;27.05;;;8.15;;
5762;SDS011;2906;53.282;9.508;2023-03-20T04:04:11;28.50;;;9.02;;
5762;SDS011;2906;53.282;9.508;2023-03-20T04:05:15;24.95;;;7.55;;
5762;SDS011;2906;53.282;9.508;2023-03-20T04:06:18;20.55;;;7.57;;
5762;SDS011;2906;53.282;9.508;2023-03-20T04:07:20;23.25;;;7.55;;
5762;SDS011;2906;53.282;9.508;2023-03-20T04:08:22;23.83;;;7.50;;
5762;SDS011;2906;53.282;9.508;2023-03-20T04:09:24;21.95;;;7.82;;
5762;SDS011;2906;53.282;9.508;2023-03-20T04:10:27;21.02;;;7.30;;
5762;SDS011;2906;53.282;9.508;2023-03-20T04:11:28;24.75;;;7.95;;
5762;SDS011;2906;53.282;9.508;2023-03-20T04:12:32;25.35;;;7.25;;
5762;SDS011;2906;53.282;9.508;2023-03-20T04:13:34;21.38;;;7.97;;
5762;SDS011;2906;53.282;9.508;2023-03-20T04:14:36;22.17;;;7.32;;
5762;SDS011;2906;53.282;9.508;2023-03-20T04:15:38;22.77;;;7.13;;
5762;SDS011;2906;53.282;9.508;2023-03-20T04:16:40;23.58;;;8.23;;
5762;SDS011;2906;53.282;9.508;2023-03-20T04:17:41;24.08;;;8.10;;
5762;SDS011;2906;53.282;9.508;2023-03-20T04:18:43;21.48;;;7.38;;
5762;SDS011;2906;53.282;9.508;2023-03-20T04:19:45;23.98;;;7.15;;
5762;SDS011;2906;53.282;9.508;2023-03-20T04:20:47;24.80;;;8.60;;
5762;SDS011;2906;53.282;9.508;2023-03-20T04:21:49;19.50;;;7.35;;
5762;SDS011;2906;53.282;9.508;2023-03-20T04:22:51;23.73;;;8.15;;
5762;SDS011;2906;53.282;9.508;2023-03-20T04:23:52;22.23;;;7.65;;
5762;SDS011;2906;53.282;9.508;2023-03-20T04:24:55;22.98;;;8.38;;
5762;SDS011;2906;53.282;9.508;2023-03-20T04:25:58;22.80;;;8.10;;
5762;SDS011;2906;53.282;9.508;2023-03-20T04:27:01;24.30;;;8.05;;
5762;SDS011;2906;53.282;9.508;2023-03-20T04:28:04;20.73;;;8.00;;
5762;SDS011;2906;53.282;9.508;2023-03-20T04:29:06;23.20;;;7.72;;
5762;SDS011;2906;53.282;9.508;2023-03-20T04:30:08;21.70;;;7.45;;
5762;SDS011;2906;53.282;9.508;2023-03-20T04:31:10;20.15;;;7.35;;
5762;SDS011;2906;53.282;9.508;2023-03-20T04:32:13;19.27;;;7.15;;
5762;SDS011;2906;53.282;9.508;2023-03-20T04:33:15;20.10;;;7.00;;
5762;SDS011;2906;53.282;9.508;2023-03-20T04:34:17;19.23;;;7.22;;
5762;SDS011;2906;53.282;9.508;2023-03-20T04:35:19;19.75;;;7.25;;
5762;SDS011;2906;53.282;9.508;2023-03-20T04:36:20;20.92;;;7.93;;
5762;SDS011;2906;53.282;9.508;2023-03-20T04:37:22;24.42;;;7.50;;
5762;SDS011;2906;53.282;9.508;2023-03-20T04:38:24;20.38;;;6.90;;
5762;SDS011;2906;53.282;9.508;2023-03-20T04:39:26;19.45;;;6.95;;
5762;SDS011;2906;53.282;9.508;2023-03-20T04:40:28;23.13;;;8.27;;
5762;SDS011;2906;53.282;9.508;2023-03-20T04:41:32;17.73;;;6.95;;
5762;SDS011;2906;53.282;9.508;2023-03-20T04:42:33;17.38;;;6.63;;
5762;SDS011;2906;53.282;9.508;2023-03-20T04:43:36;20.10;;;8.02;;
5762;SDS011;2906;53.282;9.508;2023-03-20T04:44:37;19.55;;;7.05;;
5762;SDS011;2906;53.282;9.508;2023-03-20T04:45:39;20.45;;;6.97;;
5762;SDS011;2906;53.282;9.508;2023-03-20T04:46:41;17.55;;;6.68;;
5762;SDS011;2906;53.282;9.508;2023-03-20T04:47:43;18.08;;;6.50;;
5762;SDS011;2906;53.282;9.508;2023-03-20T04:48:44;20.27;;;8.15;;
5762;SDS011;2906;53.282;9.508;2023-03-20T04:49:46;18.23;;;6.70;;
5762;SDS011;2906;53.282;9.508;2023-03-20T04:50:48;17.33;;;7.32;;
5762;SDS011;2906;53.282;9.508;2023-03-20T04:51:50;22.20;;;7.13;;
5762;SDS011;2906;53.282;9.508;2023-03-20T04:52:51;16.98;;;6.70;;
5762;SDS011;2906;53.282;9.508;2023-03-20T04:53:53;18.05;;;6.60;;
5762;SDS011;2906;53.282;9.508;2023-03-20T04:54:55;19.55;;;7.53;;
5762;SDS011;2906;53.282;9.508;2023-03-20T04:55:57;20.90;;;7.95;;
5762;SDS011;2906;53.282;9.508;2023-03-20T04:57:00;20.63;;;6.80;;
5762;SDS011;2906;53.282;9.508;2023-03-20T04:58:02;21.27;;;7.18;;
5762;SDS011;2906;53.282;9.508;2023-03-20T04:59:03;18.50;;;7.13;;
5762;SDS011;2906;53.282;9.508;2023-03-20T05:00:06;17.90;;;6.95;;
5762;SDS011;2906;53.282;9.508;2023-03-20T05:01:07;21.20;;;7.45;;
5762;SDS011;2906;53.282;9.508;2023-03-20T05:02:09;21.40;;;7.80;;
5762;SDS011;2906;53.282;9.508;2023-03-20T05:03:14;24.55;;;8.02;;
5762;SDS011;2906;53.282;9.508;2023-03-20T05:04:16;20.02;;;6.38;;
5762;SDS011;2906;53.282;9.508;2023-03-20T05:05:17;16.52;;;5.97;;
5762;SDS011;2906;53.282;9.508;2023-03-20T05:06:20;17.52;;;6.50;;
5762;SDS011;2906;53.282;9.508;2023-03-20T05:07:21;23.27;;;6.78;;
5762;SDS011;2906;53.282;9.508;2023-03-20T05:08:23;20.05;;;7.53;;
5762;SDS011;2906;53.282;9.508;2023-03-20T05:09:25;19.70;;;7.18;;
5762;SDS011;2906;53.282;9.508;2023-03-20T05:10:27;19.23;;;7.15;;
5762;SDS011;2906;53.282;9.508;2023-03-20T05:11:28;20.08;;;6.97;;
5762;SDS011;2906;53.282;9.508;2023-03-20T05:12:32;18.48;;;6.70;;
5762;SDS011;2906;53.282;9.508;2023-03-20T05:13:33;20.92;;;6.80;;
5762;SDS011;2906;53.282;9.508;2023-03-20T05:14:35;17.67;;;6.68;;
5762;SDS011;2906;53.282;9.508;2023-03-20T05:15:37;19.95;;;6.78;;
5762;SDS011;2906;53.282;9.508;2023-03-20T05:16:39;23.30;;;7.00;;
5762;SDS011;2906;53.282;9.508;2023-03-20T05:17:40;16.73;;;6.70;;
5762;SDS011;2906;53.282;9.508;2023-03-20T05:18:43;20.70;;;6.50;;
5762;SDS011;2906;53.282;9.508;2023-03-20T05:19:44;16.67;;;6.78;;
5762;SDS011;2906;53.282;9.508;2023-03-20T05:20:48;16.83;;;6.45;;
5762;SDS011;2906;53.282;9.508;2023-03-20T05:21:49;19.90;;;6.70;;
5762;SDS011;2906;53.282;9.508;2023-03-20T05:22:52;21.08;;;7.57;;
5762;SDS011;2906;53.282;9.508;2023-03-20T05:23:53;19.33;;;7.85;;
5762;SDS011;2906;53.282;9.508;2023-03-20T05:24:55;18.88;;;7.03;;
5762;SDS011;2906;53.282;9.508;2023-03-20T05:25:57;17.45;;;6.72;;
5762;SDS011;2906;53.282;9.508;2023-03-20T05:26:59;18.13;;;6.97;;
5762;SDS011;2906;53.282;9.508;2023-03-20T05:28:02;18.38;;;7.07;;
5762;SDS011;2906;53.282;9.508;2023-03-20T05:29:05;18.63;;;7.18;;
5762;SDS011;2906;53.282;9.508;2023-03-20T05:30:07;18.73;;;7.55;;
5762;SDS011;2906;53.282;9.508;2023-03-20T05:31:09;19.45;;;7.18;;
5762;SDS011;2906;53.282;9.508;2023-03-20T05:32:12;22.13;;;7.53;;
5762;SDS011;2906;53.282;9.508;2023-03-20T05:33:13;18.65;;;6.90;;
5762;SDS011;2906;53.282;9.508;2023-03-20T05:34:15;16.95;;;6.40;;
5762;SDS011;2906;53.282;9.508;2023-03-20T05:35:17;19.48;;;6.85;;
5762;SDS011;2906;53.282;9.508;2023-03-20T05:36:20;22.77;;;7.50;;
5762;SDS011;2906;53.282;9.508;2023-03-20T05:37:21;19.58;;;6.18;;
5762;SDS011;2906;53.282;9.508;2023-03-20T05:38:23;20.45;;;7.10;;
5762;SDS011;2906;53.282;9.508;2023-03-20T05:39:26;19.58;;;7.28;;
5762;SDS011;2906;53.282;9.508;2023-03-20T05:40:27;20.52;;;7.43;;
5762;SDS011;2906;53.282;9.508;2023-03-20T05:41:29;18.65;;;7.25;;
5762;SDS011;2906;53.282;9.508;2023-03-20T05:42:31;17.10;;;6.60;;
5762;SDS011;2906;53.282;9.508;2023-03-20T05:43:34;19.20;;;7.43;;
5762;SDS011;2906;53.282;9.508;2023-03-20T05:44:37;20.50;;;7.05;;
5762;SDS011;2906;53.282;9.508;2023-03-20T05:45:38;20.10;;;7.38;;
5762;SDS011;2906;53.282;9.508;2023-03-20T05:46:40;19.05;;;7.43;;
5762;SDS011;2906;53.282;9.508;2023-03-20T05:47:41;20.13;;;7.53;;
5762;SDS011;2906;53.282;9.508;2023-03-20T05:48:44;21.30;;;7.80;;
5762;SDS011;2906;53.282;9.508;2023-03-20T05:49:45;22.65;;;7.65;;
5762;SDS011;2906;53.282;9.508;2023-03-20T05:50:47;20.15;;;7.25;;
5762;SDS011;2906;53.282;9.508;2023-03-20T05:51:49;18.80;;;7.05;;
5762;SDS011;2906;53.282;9.508;2023-03-20T05:52:51;33.72;;;8.55;;
5762;SDS011;2906;53.282;9.508;2023-03-20T05:53:52;21.85;;;7.95;;
5762;SDS011;2906;53.282;9.508;2023-03-20T05:54:55;22.75;;;7.85;;
5762;SDS011;2906;53.282;9.508;2023-03-20T05:55:56;22.27;;;8.90;;
5762;SDS011;2906;53.282;9.508;2023-03-20T05:56:59;20.42;;;8.38;;
5762;SDS011;2906;53.282;9.508;2023-03-20T05:58:00;21.65;;;6.93;;
5762;SDS011;2906;53.282;9.508;2023-03-20T05:59:04;25.50;;;8.23;;
5762;SDS011;2906;53.282;9.508;2023-03-20T06:00:06;22.98;;;7.75;;
5762;SDS011;2906;53.282;9.508;2023-03-20T06:01:09;18.70;;;7.40;;
5762;SDS011;2906;53.282;9.508;2023-03-20T06:02:10;24.98;;;9.25;;
5762;SDS011;2906;53.282;9.508;2023-03-20T06:03:13;24.98;;;8.68;;
5762;SDS011;2906;53.282;9.508;2023-03-20T06:04:14;21.08;;;7.15;;
5762;SDS011;2906;53.282;9.508;2023-03-20T06:05:16;21.15;;;7.95;;
5762;SDS011;2906;53.282;9.508;2023-03-20T06:06:17;20.63;;;7.65;;
5762;SDS011;2906;53.282;9.508;2023-03-20T06:07:20;19.48;;;8.13;;
5762;SDS011;2906;53.282;9.508;2023-03-20T06:08:21;20.23;;;8.23;;
5762;SDS011;2906;53.282;9.508;2023-03-20T06:09:23;19.13;;;7.55;;
5762;SDS011;2906;53.282;9.508;2023-03-20T06:10:25;22.25;;;7.75;;
5762;SDS011;2906;53.282;9.508;2023-03-20T06:11:29;21.65;;;8.50;;
5762;SDS011;2906;53.282;9.508;2023-03-20T06:12:31;18.92;;;7.07;;
5762;SDS011;2906;53.282;9.508;2023-03-20T06:13:33;22.45;;;8.23;;
5762;SDS011;2906;53.282;9.508;2023-03-20T06:14:36;20.73;;;7.25;;
5762;SDS011;2906;53.282;9.508;2023-03-20T06:15:39;20.15;;;7.20;;
5762;SDS011;2906;53.282;9.508;2023-03-20T06:16:40;28.23;;;7.82;;
5762;SDS011;2906;53.282;9.508;2023-03-20T06:17:42;21.83;;;8.52;;
5762;SDS011;2906;53.282;9.508;2023-03-20T06:18:44;20.48;;;7.57;;
5762;SDS011;2906;53.282;9.508;2023-03-20T06:19:46;22.92;;;8.88;;
5762;SDS011;2906;53.282;9.508;2023-03-20T06:20:50;20.60;;;7.65;;
5762;SDS011;2906;53.282;9.508;2023-03-20T06:21:53;23.27;;;7.90;;
5762;SDS011;2906;53.282;9.508;2023-03-20T06:22:54;19.58;;;7.60;;
5762;SDS011;2906;53.282;9.508;2023-03-20T06:23:56;19.50;;;7.50;;
5762;SDS011;2906;53.282;9.508;2023-03-20T06:24:59;20.70;;;8.10;;
5762;SDS011;2906;53.282;9.508;2023-03-20T06:26:01;20.90;;;7.47;;